KP53

Munising Lakeshore Observation Airport

Michigan, USA
METAR KP53 150056Z AUTO 01007KT 19/16 A2992 RMK AO1 SLP130 T01940156
Observed Flight Rules
Aug-15 @ 00:56 UTC (10 minutes ago)
Wind
10° at 7 knots
Temperatures Readings
Current 19°C / 66°F
Dewpoint 16°C / 61°F
Humidity 83%
Altimeter 29.92" Hg
Pressure 1013 hPa
Elevation 187
METAR KP53 150056Z AUTO 01007KT 19/16 A2992 RMK AO1 SLP130 T01940156
Observed Flight Rules
Aug-15 @ 00:56 UTC
(10 minutes ago)
Wind
10° at 7 knots
Temperature Dewpoint
19°C / 66°F 16°C / 61°F
Humidity Altimeter Pressure
83% 29.92" Hg 1013 hPa